Wood Lake, Nebraska
Current Conditions -  °F | °C
As of 12:35 PM on Sunday 25 Jan 2015 (Local Time) from KANW Reporting Station
Overcast Overcast  
Wind Chill: 28°   Ceiling: 2100
Heat Index: 37°   Visibility: 10mi
Dew Point: 29°   Wind: 15mph
Humidity: 73%   Direction: 340°NNW
Pressure: 30.07"   Gusts: NA
Location:  42.64°N, 100.24°W
Report Text: KANW 251835Z AUTO 34013KT 10SM OVC021 03/M02 A3007 RMK AO2 T00271017
Loading
Personal Weather Stations






























Interactive Weather Map New forecast layout! Learn more

10-Day Weather Forecast

Advertisements
Track Severe Weather on mobile